< < Back
Terminal Aerodrome Forecast


Current Version              Previous Versions:   1  2  3  4  5  6  7  8  9  

Terminal Aerodrome Forecast

464
FTUS42 KILM 292332
TAFFLO
TAF
KFLO 292332Z 3000/3024 11005KT P6SM SCT250
     FM300600 VRB03KT P6SM SCT120
     FM300900 00000KT 4SM BR SCT001
      TEMPO 3009/3013 1 1/2SM BR
     FM301500 VRB04KT P6SM SCT250
     FM301800 07006KT P6SM BKN250=

Latest METAR

590
SAUS70 KWBC 300000 RRN
MTRFLO
METAR KFLO 292353Z 08004KT 10SM CLR 33/19 A2992 RMK AO2 SLP129 T03280189
10356 20328 55001


USA.gov is the U.S. government's official web portal to all federal, state and local government web resources and services.